Time;durP1;ratioP1;P1;durP2;ratioP2;P2;SDS_P1;SDS_P2;PMS_P1;PMS_P2;Temp;Humidity;BMP_temperature;BMP_pressure;BME280_temperature;BME280_humidity;BME280_pressure;Samples;Min_cycle;Max_cycle;Signal;HPM_P1;HPM_P2
2021/08/30 00:00:03;;;;;;;27.00;23.10;;;;;;;14.54;100.00;101097.56;670846;29;2776;-81
2021/08/30 00:00:24;;;;;;;28.92;23.85;;;;;;;14.55;100.00;101090.53;670069;29;1184;-81
2021/08/30 00:00:44;;;;;;;30.63;24.57;;;;;;;14.55;100.00;101091.44;678161;29;1739;-81
2021/08/30 00:01:05;;;;;;;31.20;24.87;;;;;;;14.56;100.00;101087.03;677846;29;4284;-81
2021/08/30 00:01:25;;;;;;;29.40;24.63;;;;;;;14.57;100.00;101092.25;675582;29;1210;-81
2021/08/30 00:01:46;;;;;;;30.57;24.10;;;;;;;14.56;100.00;101093.13;678742;28;1154;-81
2021/08/30 00:02:06;;;;;;;34.00;25.27;;;;;;;14.56;100.00;101095.78;676417;29;1330;-81
2021/08/30 00:02:27;;;;;;;34.47;25.33;;;;;;;14.56;100.00;101097.53;680697;29;1169;-81
2021/08/30 00:02:47;;;;;;;33.00;25.02;;;;;;;14.55;100.00;101099.31;680848;29;1798;-81
2021/08/30 00:03:07;;;;;;;31.23;24.70;;;;;;;14.54;100.00;101094.94;675200;28;3235;-81
2021/08/30 00:03:28;;;;;;;31.35;24.40;;;;;;;14.54;100.00;101080.91;675914;29;4062;-82
2021/08/30 00:03:48;;;;;;;33.13;24.83;;;;;;;14.53;100.00;101095.81;674118;29;4459;-81
2021/08/30 00:04:08;;;;;;;31.13;24.23;;;;;;;14.53;100.00;101090.56;677628;29;1526;-81
2021/08/30 00:04:29;;;;;;;30.80;24.30;;;;;;;14.53;100.00;101087.94;678501;29;1360;-81
2021/08/30 00:04:49;;;;;;;30.70;24.60;;;;;;;14.54;100.00;101091.41;675717;29;1541;-83
2021/08/30 00:05:10;;;;;;;29.55;23.50;;;;;;;14.53;100.00;101095.81;673054;29;1456;-81
2021/08/30 00:05:30;;;;;;;31.83;24.77;;;;;;;14.52;100.00;101094.06;673329;29;937;-81
2021/08/30 00:05:51;;;;;;;32.90;25.07;;;;;;;14.53;100.00;101090.56;672033;29;1245;-81
2021/08/30 00:06:11;;;;;;;30.30;24.30;;;;;;;14.54;100.00;101092.31;673361;29;1210;-81
2021/08/30 00:06:31;;;;;;;29.40;23.67;;;;;;;14.53;100.00;101087.94;667626;29;1590;-81
2021/08/30 00:06:52;;;;;;;28.23;23.43;;;;;;;14.53;100.00;101093.19;668886;29;5328;-81
2021/08/30 00:07:12;;;;;;;30.73;24.33;;;;;;;14.53;100.00;101087.94;672404;29;1334;-81
2021/08/30 00:07:33;;;;;;;32.60;24.80;;;;;;;14.53;100.00;101087.94;672027;29;1701;-81
2021/08/30 00:07:53;;;;;;;28.05;23.05;;;;;;;14.53;100.00;101084.44;671594;29;1502;-81
2021/08/30 00:08:13;;;;;;;28.47;23.13;;;;;;;14.53;100.00;101090.56;670192;29;1538;-81
2021/08/30 00:08:34;;;;;;;27.70;22.40;;;;;;;14.52;100.00;101088.81;670789;29;1012;-82
2021/08/30 00:08:54;;;;;;;31.27;24.42;;;;;;;14.53;100.00;101085.28;673702;29;869;-81
2021/08/30 00:09:16;;;;;;;29.40;24.10;;;;;;;14.53;100.00;101087.94;674517;29;1167;-81
2021/08/30 00:09:36;;;;;;;30.40;23.90;;;;;;;14.54;100.00;101094.94;673932;29;2059;-81
2021/08/30 00:09:56;;;;;;;34.23;24.50;;;;;;;14.53;100.00;101090.56;675880;29;4337;-81
2021/08/30 00:10:17;;;;;;;33.95;24.67;;;;;;;14.54;100.00;101091.41;676670;29;3484;-81
2021/08/30 00:10:38;;;;;;;34.00;24.97;;;;;;;14.54;100.00;101087.03;674513;29;3104;-81
2021/08/30 00:10:58;;;;;;;32.88;24.70;;;;;;;14.53;100.00;101087.94;674556;29;1498;-80
2021/08/30 00:11:19;;;;;;;31.10;24.92;;;;;;;14.54;100.00;101094.06;674990;29;1276;-82
2021/08/30 00:11:39;;;;;;;32.03;24.93;;;;;;;14.54;100.00;101092.31;675263;29;1494;-81
2021/08/30 00:11:59;;;;;;;33.07;24.77;;;;;;;14.53;100.00;101090.56;673054;29;1221;-81
2021/08/30 00:12:20;;;;;;;33.30;24.58;;;;;;;14.53;100.00;101098.44;676075;29;1092;-81
2021/08/30 00:12:40;;;;;;;32.33;24.53;;;;;;;14.53;100.00;101108.13;680661;28;1186;-81
2021/08/30 00:13:00;;;;;;;31.85;24.23;;;;;;;14.53;100.00;101101.09;677728;28;4315;-81
2021/08/30 00:13:21;;;;;;;31.23;24.10;;;;;;;14.53;100.00;101094.97;677729;29;4004;-81
2021/08/30 00:13:41;;;;;;;28.97;23.50;;;;;;;14.54;100.00;101096.69;677552;29;1213;-81
2021/08/30 00:14:02;;;;;;;26.08;22.65;;;;;;;14.53;100.00;101094.97;677358;29;1347;-81
2021/08/30 00:14:23;;;;;;;29.63;23.50;;;;;;;14.53;100.00;101092.34;675669;29;1360;-81
2021/08/30 00:14:43;;;;;;;29.77;23.43;;;;;;;14.54;100.00;101101.94;675338;29;1261;-81
2021/08/30 00:15:04;;;;;;;34.17;23.95;;;;;;;14.55;100.00;101098.44;673890;29;1627;-81
2021/08/30 00:15:24;;;;;;;29.00;22.50;;;;;;;14.54;100.00;101094.94;672942;29;1174;-82
2021/08/30 00:15:45;;;;;;;26.67;22.13;;;;;;;14.55;100.00;101099.31;675678;29;945;-81
2021/08/30 00:16:05;;;;;;;28.30;22.27;;;;;;;14.55;100.00;101093.16;675782;29;4339;-81
2021/08/30 00:16:25;;;;;;;28.73;22.97;;;;;;;14.53;100.00;101093.19;671767;29;4555;-81
2021/08/30 00:16:46;;;;;;;30.83;23.73;;;;;;;14.55;100.00;101096.69;672736;29;2733;-81
2021/08/30 00:17:06;;;;;;;31.80;24.13;;;;;;;14.54;100.00;101102.81;672210;29;1822;-81
2021/08/30 00:17:27;;;;;;;30.23;24.07;;;;;;;14.53;100.00;101090.56;672468;29;1332;-81
2021/08/30 00:17:47;;;;;;;29.52;23.67;;;;;;;14.57;100.00;101092.25;671547;29;1359;-81
2021/08/30 00:18:07;;;;;;;32.37;24.20;;;;;;;14.57;100.00;101100.16;675233;29;980;-81
2021/08/30 00:18:28;;;;;;;33.92;23.95;;;;;;;14.58;100.00;101095.75;678056;29;1478;-81
2021/08/30 00:18:48;;;;;;;27.37;23.07;;;;;;;14.57;100.00;101097.50;675209;29;4560;-81
2021/08/30 00:19:11;;;;;;;26.55;22.42;;;;;;;14.56;100.00;101097.53;674853;29;3782;-81
2021/08/30 00:19:35;;;;;;;27.67;22.30;;;;;;;14.55;100.00;101094.06;677402;28;1506;-81
2021/08/30 00:19:55;;;;;;;25.55;21.30;;;;;;;14.55;100.00;101098.44;675126;29;1554;-81
2021/08/30 00:20:19;;;;;;;27.23;22.17;;;;;;;14.55;100.00;101094.06;671411;29;1690;-81
2021/08/30 00:20:39;;;;;;;30.15;23.33;;;;;;;14.55;100.00;101099.31;677476;29;1035;-81
2021/08/30 00:20:59;;;;;;;27.13;22.40;;;;;;;14.55;100.00;101088.78;678582;29;996;-81
2021/08/30 00:21:20;;;;;;;28.07;21.87;;;;;;;14.54;100.00;101094.94;678777;29;1430;-81
2021/08/30 00:21:40;;;;;;;31.23;22.17;;;;;;;14.55;100.00;101093.16;676649;29;985;-82
2021/08/30 00:22:02;;;;;;;29.23;21.92;;;;;;;14.54;100.00;101091.41;678386;29;4376;-81
2021/08/30 00:22:22;;;;;;;30.42;23.60;;;;;;;14.54;100.00;101097.56;678229;29;3181;-82
2021/08/30 00:22:43;;;;;;;31.63;23.73;;;;;;;14.54;100.00;101084.41;678536;29;1742;-81
2021/08/30 00:23:04;;;;;;;30.55;23.38;;;;;;;14.54;100.00;101089.69;678125;29;1375;-82
2021/08/30 00:23:24;;;;;;;32.13;23.75;;;;;;;14.55;100.00;101099.31;676746;29;1204;-81
2021/08/30 00:23:45;;;;;;;31.77;24.13;;;;;;;14.54;100.00;101092.31;677941;29;1278;-81
2021/08/30 00:24:05;;;;;;;31.80;23.98;;;;;;;14.54;100.00;101091.41;675504;29;1488;-81
2021/08/30 00:24:25;;;;;;;30.50;23.33;;;;;;;14.53;100.00;101087.94;675773;29;1201;-82
2021/08/30 00:24:46;;;;;;;29.63;23.10;;;;;;;14.54;100.00;101096.69;673334;29;4527;-81
2021/08/30 00:25:07;;;;;;;30.63;23.63;;;;;;;14.52;100.00;101094.06;672927;29;4166;-81
2021/08/30 00:25:27;;;;;;;31.65;23.35;;;;;;;14.54;100.00;101091.41;672587;29;1484;-82
2021/08/30 00:25:48;;;;;;;30.57;22.93;;;;;;;14.55;100.00;101090.53;673047;29;1624;-81
2021/08/30 00:26:08;;;;;;;27.63;21.73;;;;;;;14.54;100.00;101092.31;675305;29;1566;-82
2021/08/30 00:26:28;;;;;;;27.13;21.97;;;;;;;14.54;100.00;101087.03;676174;29;1416;-81
2021/08/30 00:26:49;;;;;;;28.13;22.73;;;;;;;14.55;100.00;101095.78;676180;29;1123;-81
2021/08/30 00:27:09;;;;;;;31.47;22.73;;;;;;;14.54;100.00;101081.78;673817;29;1425;-81
2021/08/30 00:27:30;;;;;;;30.13;22.83;;;;;;;14.58;100.00;101086.09;675555;29;1548;-81
2021/08/30 00:27:50;;;;;;;28.48;22.25;;;;;;;14.59;100.00;101087.84;672787;29;4386;-81
2021/08/30 00:28:11;;;;;;;30.60;22.83;;;;;;;14.61;100.00;101085.19;678706;29;4163;-81
2021/08/30 00:28:32;;;;;;;30.63;23.03;;;;;;;14.60;100.00;101089.56;677949;29;1319;-82
2021/08/30 00:28:53;;;;;;;29.20;22.92;;;;;;;14.58;100.00;101086.09;676908;29;1398;-81
2021/08/30 00:29:13;;;;;;;28.77;22.37;;;;;;;14.59;100.00;101085.22;676458;29;1274;-81
2021/08/30 00:29:33;;;;;;;28.02;22.00;;;;;;;14.58;100.00;101086.09;681222;29;912;-81
2021/08/30 00:29:54;;;;;;;33.33;23.13;;;;;;;14.59;100.00;101092.22;675629;29;1450;-81
2021/08/30 00:30:14;;;;;;;30.10;22.27;;;;;;;14.60;100.00;101091.34;674855;29;1368;-81
2021/08/30 00:30:34;;;;;;;26.33;21.23;;;;;;;14.59;100.00;101095.75;674308;29;944;-82
2021/08/30 00:30:55;;;;;;;26.87;21.67;;;;;;;14.60;100.00;101089.56;676021;29;4366;-81
2021/08/30 00:31:15;;;;;;;26.50;21.45;;;;;;;14.62;100.00;101100.06;675408;29;2157;-81
2021/08/30 00:31:36;;;;;;;30.23;22.63;;;;;;;14.60;100.00;101092.19;677362;29;1938;-81
2021/08/30 00:31:57;;;;;;;33.33;23.20;;;;;;;14.60;100.00;101086.94;675171;29;1683;-81
2021/08/30 00:32:18;;;;;;;31.58;23.30;;;;;;;14.59;100.00;101087.84;682244;28;1154;-81
2021/08/30 00:32:38;;;;;;;26.85;21.90;;;;;;;14.60;100.00;101086.94;678098;29;1272;-83
2021/08/30 00:32:58;;;;;;;24.53;20.50;;;;;;;14.59;100.00;101087.84;678647;29;1486;-81
2021/08/30 00:33:19;;;;;;;25.92;21.77;;;;;;;14.59;100.00;101090.50;676390;29;1322;-81
2021/08/30 00:33:39;;;;;;;27.37;22.20;;;;;;;14.58;100.00;101094.00;676389;29;1265;-81
2021/08/30 00:33:59;;;;;;;29.70;22.77;;;;;;;14.59;100.00;101084.34;672344;29;4416;-81
2021/08/30 00:34:20;;;;;;;29.25;22.60;;;;;;;14.59;100.00;101093.13;672765;29;1119;-82
2021/08/30 00:34:41;;;;;;;31.00;23.13;;;;;;;14.59;100.00;101084.34;672985;29;1868;-81
2021/08/30 00:35:01;;;;;;;30.07;23.20;;;;;;;14.58;100.00;101086.09;678386;29;1177;-81
2021/08/30 00:35:21;;;;;;;30.73;23.73;;;;;;;14.59;100.00;101097.50;678082;29;968;-81
2021/08/30 00:35:42;;;;;;;30.63;22.67;;;;;;;14.58;100.00;101086.09;675640;29;1218;-81
2021/08/30 00:36:02;;;;;;;29.67;22.67;;;;;;;14.61;100.00;101088.69;673245;29;1261;-81
2021/08/30 00:36:24;;;;;;;31.92;22.67;;;;;;;14.64;100.00;101093.94;670610;29;1238;-81
2021/08/30 00:36:45;;;;;;;33.38;22.65;;;;;;;14.70;100.00;101092.09;670555;29;953;-81
2021/08/30 00:37:05;;;;;;;29.33;21.90;;;;;;;14.70;100.00;101092.09;671885;29;4422;-81
2021/08/30 00:37:25;;;;;;;26.60;20.50;;;;;;;14.69;100.00;101085.09;670902;29;927;-81
2021/08/30 00:37:47;;;;;;;27.00;20.70;;;;;;;14.67;100.00;101094.78;672295;29;1442;-81
2021/08/30 00:38:07;;;;;;;29.60;22.35;;;;;;;14.64;100.00;101088.66;676122;29;1264;-81
2021/08/30 00:38:27;;;;;;;32.10;23.03;;;;;;;14.64;100.00;101093.06;675868;29;944;-81
2021/08/30 00:38:48;;;;;;;32.43;23.27;;;;;;;14.60;100.00;101086.94;675676;29;1518;-81
2021/08/30 00:39:08;;;;;;;29.85;23.35;;;;;;;14.61;100.00;101103.63;676195;29;3713;-81
2021/08/30 00:39:31;;;;;;;29.17;24.13;;;;;;;14.59;100.00;101101.00;673682;29;1208;-81
2021/08/30 00:39:51;;;;;;;30.80;23.73;;;;;;;14.59;100.00;101094.84;672524;29;4374;-81
2021/08/30 00:40:12;;;;;;;30.27;23.53;;;;;;;14.59;100.00;101097.50;669595;29;4089;-81
2021/08/30 00:40:37;;;;;;;30.85;23.05;;;;;;;14.59;100.00;101094.84;670456;29;1486;-81
2021/08/30 00:40:57;;;;;;;30.02;23.05;;;;;;;14.67;100.00;101103.53;669333;29;1049;-81
2021/08/30 00:41:17;;;;;;;33.07;24.03;;;;;;;14.67;100.00;101106.19;670358;29;1114;-81
2021/08/30 00:41:38;;;;;;;33.75;24.35;;;;;;;14.67;100.00;101113.22;670809;29;1009;-81
2021/08/30 00:41:58;;;;;;;32.10;23.30;;;;;;;14.65;100.00;101105.34;672683;29;1977;-81
2021/08/30 00:42:19;;;;;;;27.33;22.03;;;;;;;14.65;100.00;101105.34;671835;29;961;-81
2021/08/30 00:42:39;;;;;;;29.77;22.90;;;;;;;14.62;100.00;101106.25;672282;29;1747;-81
2021/08/30 00:43:01;;;;;;;32.87;23.60;;;;;;;14.63;100.00;101105.38;677780;29;4368;-81
2021/08/30 00:43:22;;;;;;;30.38;23.17;;;;;;;14.62;100.00;101097.44;678084;29;1338;-81
2021/08/30 00:43:42;;;;;;;27.07;21.80;;;;;;;14.61;100.00;101090.47;675099;29;1285;-81
2021/08/30 00:44:05;;;;;;;27.60;22.50;;;;;;;14.61;100.00;101101.00;672778;29;1358;-82
2021/08/30 00:44:27;;;;;;;29.60;22.83;;;;;;;14.60;100.00;101096.59;675519;29;1331;-82
2021/08/30 00:44:47;;;;;;;29.40;23.38;;;;;;;14.62;100.00;101100.06;678239;29;1272;-82
2021/08/30 00:45:09;;;;;;;33.22;24.25;;;;;;;14.61;100.00;101101.00;675088;29;1152;-82
2021/08/30 00:45:31;;;;;;;33.35;24.98;;;;;;;14.60;100.00;101092.19;677540;29;1464;-82
2021/08/30 00:45:51;;;;;;;32.65;24.42;;;;;;;14.59;100.00;101103.66;674499;29;4361;-82
2021/08/30 00:46:16;;;;;;;34.40;24.27;;;;;;;14.60;100.00;101101.88;674638;29;1135;-81
2021/08/30 00:46:37;;;;;;;32.38;24.35;;;;;;;14.63;100.00;101108.00;675648;29;1734;-81
2021/08/30 00:46:57;;;;;;;31.45;24.20;;;;;;;14.61;100.00;101091.31;673269;29;1309;-82
2021/08/30 00:47:18;;;;;;;30.87;24.00;;;;;;;14.60;100.00;101108.00;675415;29;1290;-82
2021/08/30 00:47:39;;;;;;;31.20;23.50;;;;;;;14.60;100.00;101102.72;676059;29;1511;-82
2021/08/30 00:48:01;;;;;;;28.60;22.55;;;;;;;14.61;100.00;101106.25;674712;29;1472;-82
2021/08/30 00:48:21;;;;;;;31.52;23.35;;;;;;;14.60;100.00;101110.63;671016;29;1344;-82
2021/08/30 00:48:41;;;;;;;33.07;24.57;;;;;;;14.59;100.00;101103.66;667388;29;3928;-82
2021/08/30 00:49:04;;;;;;;31.35;24.23;;;;;;;14.59;100.00;101103.66;666888;29;4338;-81
2021/08/30 00:49:25;;;;;;;31.73;24.70;;;;;;;14.59;100.00;101098.38;670176;29;1292;-82
2021/08/30 00:49:45;;;;;;;33.13;23.63;;;;;;;14.59;100.00;101098.38;673627;29;1286;-81
2021/08/30 00:50:08;;;;;;;31.55;22.77;;;;;;;14.59;100.00;101095.75;675041;29;1001;-81
2021/08/30 00:50:29;;;;;;;27.38;22.13;;;;;;;14.58;100.00;101096.63;678442;29;1062;-82
2021/08/30 00:50:49;;;;;;;28.20;22.70;;;;;;;14.61;100.00;101101.84;678233;28;1477;-82
2021/08/30 00:51:09;;;;;;;29.83;23.80;;;;;;;14.61;100.00;101104.47;675981;29;1293;-82
2021/08/30 00:51:30;;;;;;;28.50;23.10;;;;;;;14.61;100.00;101101.00;673094;29;1223;-82
2021/08/30 00:51:51;;;;;;;29.63;23.58;;;;;;;14.60;100.00;101097.47;672182;29;4418;-82
2021/08/30 00:52:12;;;;;;;28.80;22.77;;;;;;;14.60;100.00;101102.72;675104;29;1524;-81
2021/08/30 00:52:32;;;;;;;26.23;21.93;;;;;;;14.61;100.00;101093.09;672519;29;1467;-82
2021/08/30 00:52:53;;;;;;;29.85;23.60;;;;;;;14.61;100.00;101095.72;672778;29;916;-82
2021/08/30 00:53:14;;;;;;;32.25;24.25;;;;;;;14.62;100.00;101097.44;677960;29;1361;-81
2021/08/30 00:53:35;;;;;;;31.97;24.23;;;;;;;14.61;100.00;101098.34;675373;29;1221;-82
2021/08/30 00:53:58;;;;;;;32.67;24.70;;;;;;;14.60;100.00;101110.63;678577;29;1444;-81
2021/08/30 00:54:22;;;;;;;33.83;25.08;;;;;;;14.61;100.00;101101.00;672549;29;1257;-81
2021/08/30 00:54:43;;;;;;;29.38;23.98;;;;;;;14.59;100.00;101101.00;672466;29;3614;-82
2021/08/30 00:55:08;;;;;;;30.35;24.52;;;;;;;14.60;100.00;101101.88;671633;29;4421;-82
2021/08/30 00:55:28;;;;;;;29.23;23.63;;;;;;;14.58;100.00;101101.91;672985;29;1325;-82
2021/08/30 00:55:49;;;;;;;28.95;23.83;;;;;;;14.59;100.00;101101.00;672710;29;1565;-82
2021/08/30 00:56:09;;;;;;;29.07;23.80;;;;;;;14.58;100.00;101103.63;671041;29;1206;-82
2021/08/30 00:56:30;;;;;;;31.25;23.67;;;;;;;14.58;100.00;101099.25;670145;29;1437;-81
2021/08/30 00:56:50;;;;;;;32.57;25.17;;;;;;;14.58;100.00;101104.53;672746;29;1308;-81
2021/08/30 00:57:11;;;;;;;29.60;24.27;;;;;;;14.58;100.00;101114.16;671051;29;1134;-82
2021/08/30 00:57:31;;;;;;;28.40;23.20;;;;;;;14.58;100.00;101104.53;672986;29;1054;-82
2021/08/30 00:57:51;;;;;;;28.33;22.57;;;;;;;14.58;100.00;101104.53;672214;29;4394;-82
2021/08/30 00:58:12;;;;;;;27.48;22.08;;;;;;;14.59;100.00;101106.28;675718;29;1749;-81
2021/08/30 00:58:32;;;;;;;26.20;21.57;;;;;;;14.58;100.00;101107.16;675783;29;1409;-82
2021/08/30 00:58:53;;;;;;;25.67;21.20;;;;;;;14.59;100.00;101105.38;672604;29;1410;-82
2021/08/30 00:59:14;;;;;;;28.23;22.13;;;;;;;14.60;100.00;101101.88;672007;29;1249;-81
2021/08/30 00:59:38;;;;;;;27.85;22.55;;;;;;;14.61;100.00;101106.25;672470;29;1959;-82
2021/08/30 00:59:59;;;;;;;25.95;22.05;;;;;;;14.61;100.00;101108.88;672362;29;1365;-81
2021/08/30 01:00:19;;;;;;;29.87;23.40;;;;;;;14.61;100.00;101109.72;675270;29;1199;-81
2021/08/30 01:00:40;;;;;;;28.98;23.08;;;;;;;14.61;100.00;101107.09;673335;29;3373;-82
2021/08/30 01:01:02;;;;;;;26.33;22.08;;;;;;;14.61;100.00;101115.00;672818;29;4560;-81
2021/08/30 01:01:22;;;;;;;28.17;22.80;;;;;;;14.60;100.00;101102.72;672105;29;1417;-81
2021/08/30 01:01:43;;;;;;;30.67;22.60;;;;;;;14.61;100.00;101101.84;674238;29;1351;-81
2021/08/30 01:02:03;;;;;;;32.88;23.90;;;;;;;14.60;100.00;101118.50;672706;29;1903;-81
2021/08/30 01:02:24;;;;;;;36.83;24.10;;;;;;;14.60;100.00;101097.47;674808;29;2384;-81
2021/08/30 01:02:45;;;;;;;38.42;23.85;;;;;;;14.60;100.00;101112.41;678004;29;1368;-82
2021/08/30 01:03:06;;;;;;;42.05;23.92;;;;;;;14.60;100.00;101104.50;675434;29;1294;-81
2021/08/30 01:03:26;;;;;;;41.17;24.25;;;;;;;14.59;100.00;101108.00;674855;29;1349;-81
2021/08/30 01:03:48;;;;;;;30.03;23.27;;;;;;;14.61;100.00;101111.50;672026;29;4368;-81
2021/08/30 01:04:09;;;;;;;27.50;21.58;;;;;;;14.59;100.00;101122.06;674832;29;1725;-81
2021/08/30 01:04:30;;;;;;;28.08;22.27;;;;;;;14.60;100.00;101117.66;675569;29;1552;-81
2021/08/30 01:04:51;;;;;;;31.87;23.30;;;;;;;14.61;100.00;101103.63;678009;29;1407;-81
2021/08/30 01:05:14;;;;;;;36.10;23.75;;;;;;;14.61;100.00;101107.09;677975;29;1412;-81
2021/08/30 01:05:38;;;;;;;31.17;22.70;;;;;;;14.59;100.00;101106.28;677978;29;1193;-81
2021/08/30 01:06:06;;;;;;;26.70;22.15;;;;;;;14.60;100.00;101100.09;678611;29;1591;-81
2021/08/30 01:06:46;;;;;;;32.22;23.33;;;;;;;14.62;100.00;101111.53;676482;29;3196;-81
2021/08/30 01:07:17;;;;;;;28.88;21.83;;;;;;;14.62;100.00;101105.34;676488;29;4781;-81
2021/08/30 01:07:45;;;;;;;29.75;23.30;;;;;;;14.64;100.00;101104.44;680602;28;1228;-81
2021/08/30 01:08:20;;;;;;;32.17;22.88;;;;;;;14.66;100.00;101106.19;680735;28;1188;-81
2021/08/30 01:08:49;;;;;;;25.33;21.48;;;;;;;14.63;100.00;101105.38;680185;29;1478;-81
2021/08/30 01:09:27;;;;;;;29.23;22.88;;;;;;;14.63;100.00;101099.22;677548;29;1001;-81
2021/08/30 01:09:50;;;;;;;35.83;24.83;;;;;;;14.62;100.00;101111.53;680223;29;4364;-81
2021/08/30 01:10:21;;;;;;;33.92;25.55;;;;;;;14.62;100.00;101106.25;675056;29;3508;-81
2021/08/30 01:11:02;;;;;;;33.45;24.90;;;;;;;14.69;100.00;101096.50;675098;29;1073;-81
2021/08/30 01:11:25;;;;;;;30.15;23.50;;;;;;;14.67;100.00;101100.91;677755;29;1196;-81
2021/08/30 01:11:54;;;;;;;30.65;23.50;;;;;;;14.67;100.00;101100.91;679065;29;1278;-81
2021/08/30 01:12:28;;;;;;;28.80;23.02;;;;;;;14.67;100.00;101107.94;680297;29;970;-82
2021/08/30 01:12:53;;;;;;;27.95;23.08;;;;;;;14.64;100.00;101104.44;680052;29;4860;-81
2021/08/30 01:13:24;;;;;;;26.92;22.67;;;;;;;14.63;100.00;101118.53;677624;29;2133;-81
2021/08/30 01:13:50;;;;;;;31.73;24.35;;;;;;;14.66;100.00;101107.06;677909;29;1527;-81
2021/08/30 01:14:14;;;;;;;31.65;24.17;;;;;;;14.68;100.00;101114.97;677806;29;1370;-81
2021/08/30 01:14:43;;;;;;;28.95;22.67;;;;;;;14.70;100.00;101118.44;676025;29;1872;-81
2021/08/30 01:15:13;;;;;;;28.98;22.77;;;;;;;14.70;100.00;101124.53;675339;29;1156;-81
2021/08/30 01:15:40;;;;;;;33.38;24.10;;;;;;;14.68;100.00;101114.97;672509;29;1352;-81
2021/08/30 01:16:04;;;;;;;31.90;24.77;;;;;;;14.66;100.00;101127.25;669509;29;4419;-81
2021/08/30 01:16:27;;;;;;;33.22;25.73;;;;;;;14.64;100.00;101099.19;670885;29;1270;-81
2021/08/30 01:16:50;;;;;;;32.92;25.25;;;;;;;14.67;100.00;101098.28;672314;29;1159;-81
2021/08/30 01:17:11;;;;;;;30.42;23.17;;;;;;;14.66;100.00;101100.94;674100;29;1086;-81
2021/08/30 01:17:35;;;;;;;28.20;22.92;;;;;;;14.64;100.00;101114.97;675066;29;1375;-81
2021/08/30 01:17:58;;;;;;;32.10;24.30;;;;;;;14.64;100.00;101100.97;674924;29;1371;-81
2021/08/30 01:18:25;;;;;;;30.05;24.05;;;;;;;14.62;100.00;101126.38;674871;29;1160;-81
2021/08/30 01:18:49;;;;;;;30.30;24.15;;;;;;;14.62;100.00;101119.41;677175;29;1280;-81
2021/08/30 01:19:17;;;;;;;34.17;24.63;;;;;;;14.64;100.00;101099.19;676534;29;4727;-81
2021/08/30 01:19:51;;;;;;;32.22;24.42;;;;;;;14.63;100.00;101094.84;677899;29;1344;-81
2021/08/30 01:20:29;;;;;;;34.08;25.10;;;;;;;14.62;100.00;101102.69;677853;28;1280;-81
2021/08/30 01:21:23;;;;;;;30.80;24.27;;;;;;;14.67;100.00;101098.28;681118;29;1188;-81
2021/08/30 01:21:45;;;;;;;41.88;25.92;;;;;;;14.65;100.00;101113.25;672802;29;1419;-81
2021/08/30 01:22:08;;;;;;;36.38;25.80;;;;;;;14.77;100.00;101099.00;676777;29;4334;-81
2021/08/30 01:22:30;;;;;;;34.45;25.23;;;;;;;14.77;100.00;101109.53;677652;29;1247;-81
2021/08/30 01:22:53;;;;;;;32.40;24.38;;;;;;;14.76;100.00;101105.16;679114;29;1416;-81
2021/08/30 01:23:15;;;;;;;36.35;24.83;;;;;;;14.74;100.00;101104.31;680169;28;1539;-81
2021/08/30 01:23:40;;;;;;;38.97;25.63;;;;;;;14.71;100.00;101102.59;678252;29;1316;-81
2021/08/30 01:24:03;;;;;;;33.65;25.52;;;;;;;14.70;100.00;101100.00;677320;29;1446;-81
2021/08/30 01:24:25;;;;;;;32.88;24.98;;;;;;;14.68;100.00;101115.81;676786;28;1242;-81
2021/08/30 01:24:49;;;;;;;37.33;25.77;;;;;;;14.66;100.00;101096.53;675665;29;928;-81
2021/08/30 01:25:12;;;;;;;35.50;25.50;;;;;;;14.65;100.00;101107.97;675156;29;6115;-82
2021/08/30 01:25:34;;;;;;;36.65;26.15;;;;;;;14.62;100.00;101103.63;674987;29;1246;-81
2021/08/30 01:25:59;;;;;;;36.42;26.20;;;;;;;14.62;100.00;101106.25;676491;29;1101;-81
2021/08/30 01:26:20;;;;;;;32.55;25.63;;;;;;;14.62;100.00;101102.69;679752;29;1251;-81
2021/08/30 01:26:45;;;;;;;33.10;25.92;;;;;;;14.61;100.00;101104.47;676126;29;1648;-80
2021/08/30 01:27:05;;;;;;;33.13;26.00;;;;;;;14.60;100.00;101104.50;675273;29;996;-80
2021/08/30 01:27:28;;;;;;;38.28;26.05;;;;;;;14.59;100.00;101101.00;674165;29;1541;-80
2021/08/30 01:27:51;;;;;;;38.60;26.48;;;;;;;14.60;100.00;101118.50;671123;29;4404;-80
2021/08/30 01:28:12;;;;;;;34.65;26.00;;;;;;;14.60;100.00;101105.34;669799;29;2452;-80
2021/08/30 01:29:10;;;;;;;33.05;25.63;;;;;;;14.66;100.00;101108.84;672057;29;1107;-80
2021/08/30 01:29:41;;;;;;;36.65;25.38;;;;;;;14.63;100.00;101108.00;673302;29;1237;-80
2021/08/30 01:30:08;;;;;;;35.20;26.08;;;;;;;14.62;100.00;101105.34;676707;29;1597;-80
2021/08/30 01:30:31;;;;;;;36.25;25.95;;;;;;;14.61;100.00;101109.72;678272;29;1186;-80
2021/08/30 01:30:54;;;;;;;38.95;26.13;;;;;;;14.60;100.00;101112.41;672636;29;4425;-81
2021/08/30 01:31:27;;;;;;;38.17;26.67;;;;;;;14.57;100.00;101101.91;670486;29;1334;-80
2021/08/30 01:31:55;;;;;;;38.65;27.50;;;;;;;14.56;100.00;101111.56;675078;29;1325;-80
2021/08/30 01:32:38;;;;;;;36.58;27.15;;;;;;;14.57;100.00;101112.44;671581;29;1084;-80
2021/08/30 01:33:05;;;;;;;39.00;27.33;;;;;;;14.56;100.00;101110.69;674284;29;1351;-80
2021/08/30 01:33:26;;;;;;;38.90;27.67;;;;;;;14.57;100.00;101117.72;678616;29;1331;-80
2021/08/30 01:33:49;;;;;;;44.25;27.27;;;;;;;14.55;100.00;101108.94;673845;29;4458;-80
2021/08/30 01:34:10;;;;;;;43.40;27.48;;;;;;;14.55;100.00;101111.56;675381;29;2385;-81
2021/08/30 01:34:33;;;;;;;49.17;27.80;;;;;;;14.53;100.00;101108.97;671502;29;1298;-80
2021/08/30 01:34:55;;;;;;;38.55;27.17;;;;;;;14.58;100.00;101114.16;673636;29;1235;-81
2021/08/30 01:35:22;;;;;;;35.65;26.40;;;;;;;14.60;100.00;101112.41;676544;29;1213;-80
2021/08/30 01:35:43;;;;;;;37.35;27.17;;;;;;;14.58;100.00;101114.16;678072;29;1311;-80
2021/08/30 01:36:04;;;;;;;39.47;25.97;;;;;;;14.56;100.00;101119.44;677530;29;1207;-80
2021/08/30 01:36:26;;;;;;;40.92;26.95;;;;;;;14.56;100.00;101111.56;679771;29;1339;-80
2021/08/30 01:36:48;;;;;;;33.70;25.35;;;;;;;14.57;100.00;101113.31;677218;29;5263;-80
2021/08/30 01:37:09;;;;;;;34.47;25.67;;;;;;;14.55;100.00;101112.47;677612;29;1488;-80
2021/08/30 01:37:32;;;;;;;38.67;26.55;;;;;;;14.56;100.00;101114.19;675076;29;1130;-80
2021/08/30 01:37:57;;;;;;;42.63;27.80;;;;;;;14.55;100.00;101114.22;676007;29;1134;-80
2021/08/30 01:38:18;;;;;;;47.33;27.92;;;;;;;14.55;100.00;101109.84;676556;29;1114;-80
2021/08/30 01:38:45;;;;;;;40.17;26.90;;;;;;;14.55;100.00;101114.22;679388;29;1328;-80
2021/08/30 01:39:06;;;;;;;36.42;26.63;;;;;;;14.53;100.00;101108.97;676715;29;3651;-80
2021/08/30 01:39:32;;;;;;;43.83;28.08;;;;;;;14.54;100.00;101115.97;678289;29;1630;-80
2021/08/30 01:39:54;;;;;;;39.95;27.23;;;;;;;14.53;100.00;101111.59;677122;29;4510;-80
2021/08/30 01:40:17;;;;;;;42.17;28.02;;;;;;;14.52;100.00;101115.13;674682;29;1467;-80
2021/08/30 01:40:38;;;;;;;37.35;26.92;;;;;;;14.52;100.00;101109.00;673166;29;1410;-80
2021/08/30 01:41:00;;;;;;;36.25;26.83;;;;;;;14.52;100.00;101115.13;674965;29;1423;-80
2021/08/30 01:41:20;;;;;;;41.67;27.77;;;;;;;14.52;100.00;101109.00;675706;29;1168;-80
2021/08/30 01:41:42;;;;;;;36.17;26.80;;;;;;;14.52;100.00;101117.75;673166;29;1402;-81
2021/08/30 01:42:03;;;;;;;33.67;25.85;;;;;;;14.52;100.00;101109.00;673743;29;1907;-80
2021/08/30 01:42:25;;;;;;;35.05;26.13;;;;;;;14.51;100.00;101113.41;673900;29;1403;-81
2021/08/30 01:42:51;;;;;;;37.60;26.70;;;;;;;14.51;100.00;101113.41;675233;29;5284;-80
2021/08/30 01:43:13;;;;;;;36.28;26.65;;;;;;;14.54;100.00;101110.72;678193;29;1126;-81